sensor_id;sensor_type;location;lat;lon;timestamp;P1;durP1;ratioP1;P2;durP2;ratioP2
16450;SDS011;12243;42.708;23.310;2022-10-31T00:00:04;5.50;;;4.50;;
16450;SDS011;12243;42.708;23.310;2022-10-31T00:02:36;5.37;;;4.53;;
16450;SDS011;12243;42.708;23.310;2022-10-31T00:05:05;7.07;;;4.50;;
16450;SDS011;12243;42.708;23.310;2022-10-31T00:07:32;5.53;;;4.37;;
16450;SDS011;12243;42.708;23.310;2022-10-31T00:09:59;7.13;;;4.30;;
16450;SDS011;12243;42.708;23.310;2022-10-31T00:12:26;5.27;;;4.37;;
16450;SDS011;12243;42.708;23.310;2022-10-31T00:14:53;7.77;;;4.83;;
16450;SDS011;12243;42.708;23.310;2022-10-31T00:17:19;5.10;;;4.30;;
16450;SDS011;12243;42.708;23.310;2022-10-31T00:19:46;4.97;;;4.40;;
16450;SDS011;12243;42.708;23.310;2022-10-31T00:22:14;6.07;;;4.87;;
16450;SDS011;12243;42.708;23.310;2022-10-31T00:24:41;7.83;;;4.80;;
16450;SDS011;12243;42.708;23.310;2022-10-31T00:27:08;7.50;;;5.03;;
16450;SDS011;12243;42.708;23.310;2022-10-31T00:29:35;6.07;;;4.73;;
16450;SDS011;12243;42.708;23.310;2022-10-31T00:32:02;10.47;;;5.30;;
16450;SDS011;12243;42.708;23.310;2022-10-31T00:34:29;8.77;;;5.43;;
16450;SDS011;12243;42.708;23.310;2022-10-31T00:36:58;9.63;;;6.53;;
16450;SDS011;12243;42.708;23.310;2022-10-31T00:39:27;8.57;;;5.40;;
16450;SDS011;12243;42.708;23.310;2022-10-31T00:41:53;7.00;;;4.60;;
16450;SDS011;12243;42.708;23.310;2022-10-31T00:44:20;6.07;;;5.23;;
16450;SDS011;12243;42.708;23.310;2022-10-31T00:46:47;8.07;;;5.00;;
16450;SDS011;12243;42.708;23.310;2022-10-31T00:49:19;6.53;;;5.10;;
16450;SDS011;12243;42.708;23.310;2022-10-31T00:51:45;8.33;;;5.43;;
16450;SDS011;12243;42.708;23.310;2022-10-31T00:54:12;6.20;;;4.77;;
16450;SDS011;12243;42.708;23.310;2022-10-31T00:56:41;6.07;;;4.83;;
16450;SDS011;12243;42.708;23.310;2022-10-31T00:59:08;6.03;;;5.07;;
16450;SDS011;12243;42.708;23.310;2022-10-31T01:01:34;5.07;;;4.67;;
16450;SDS011;12243;42.708;23.310;2022-10-31T01:04:01;6.07;;;4.77;;
16450;SDS011;12243;42.708;23.310;2022-10-31T01:06:30;5.93;;;4.83;;
16450;SDS011;12243;42.708;23.310;2022-10-31T01:08:57;5.00;;;4.57;;
16450;SDS011;12243;42.708;23.310;2022-10-31T01:11:24;6.53;;;4.63;;
16450;SDS011;12243;42.708;23.310;2022-10-31T01:13:53;7.20;;;4.87;;
16450;SDS011;12243;42.708;23.310;2022-10-31T01:16:21;5.50;;;4.83;;
16450;SDS011;12243;42.708;23.310;2022-10-31T01:18:49;7.27;;;5.40;;
16450;SDS011;12243;42.708;23.310;2022-10-31T01:21:16;5.50;;;4.90;;
16450;SDS011;12243;42.708;23.310;2022-10-31T01:23:47;7.77;;;4.83;;
16450;SDS011;12243;42.708;23.310;2022-10-31T01:26:16;6.60;;;5.10;;
16450;SDS011;12243;42.708;23.310;2022-10-31T01:28:45;5.33;;;4.77;;
16450;SDS011;12243;42.708;23.310;2022-10-31T01:31:15;6.70;;;5.13;;
16450;SDS011;12243;42.708;23.310;2022-10-31T01:33:43;5.87;;;4.97;;
16450;SDS011;12243;42.708;23.310;2022-10-31T01:36:11;7.73;;;4.87;;
16450;SDS011;12243;42.708;23.310;2022-10-31T01:38:43;8.43;;;5.00;;
16450;SDS011;12243;42.708;23.310;2022-10-31T01:41:11;16.40;;;5.00;;
16450;SDS011;12243;42.708;23.310;2022-10-31T01:43:43;6.07;;;4.80;;
16450;SDS011;12243;42.708;23.310;2022-10-31T01:46:11;7.00;;;4.70;;
16450;SDS011;12243;42.708;23.310;2022-10-31T01:48:41;6.07;;;4.77;;
16450;SDS011;12243;42.708;23.310;2022-10-31T01:51:08;5.30;;;4.80;;
16450;SDS011;12243;42.708;23.310;2022-10-31T01:53:39;7.87;;;5.37;;
16450;SDS011;12243;42.708;23.310;2022-10-31T01:56:07;6.13;;;4.80;;
16450;SDS011;12243;42.708;23.310;2022-10-31T01:58:36;6.10;;;5.40;;
16450;SDS011;12243;42.708;23.310;2022-10-31T02:01:04;11.93;;;5.87;;
16450;SDS011;12243;42.708;23.310;2022-10-31T02:03:31;8.53;;;6.13;;
16450;SDS011;12243;42.708;23.310;2022-10-31T02:06:00;11.93;;;6.57;;
16450;SDS011;12243;42.708;23.310;2022-10-31T02:08:28;8.03;;;6.97;;
16450;SDS011;12243;42.708;23.310;2022-10-31T02:10:56;9.93;;;6.93;;
16450;SDS011;12243;42.708;23.310;2022-10-31T02:13:24;7.80;;;6.63;;
16450;SDS011;12243;42.708;23.310;2022-10-31T02:15:53;10.23;;;6.33;;
16450;SDS011;12243;42.708;23.310;2022-10-31T02:18:22;8.63;;;6.87;;
16450;SDS011;12243;42.708;23.310;2022-10-31T02:20:53;9.80;;;6.80;;
16450;SDS011;12243;42.708;23.310;2022-10-31T02:23:33;7.73;;;6.23;;
16450;SDS011;12243;42.708;23.310;2022-10-31T02:26:36;8.73;;;7.10;;
16450;SDS011;12243;42.708;23.310;2022-10-31T02:32:21;7.60;;;6.70;;
16450;SDS011;12243;42.708;23.310;2022-10-31T02:34:55;10.17;;;7.33;;
16450;SDS011;12243;42.708;23.310;2022-10-31T02:37:34;9.77;;;7.73;;
16450;SDS011;12243;42.708;23.310;2022-10-31T02:40:05;7.97;;;7.00;;
16450;SDS011;12243;42.708;23.310;2022-10-31T02:43:05;10.47;;;7.10;;
16450;SDS011;12243;42.708;23.310;2022-10-31T02:45:39;11.53;;;7.53;;
16450;SDS011;12243;42.708;23.310;2022-10-31T02:48:14;10.10;;;7.43;;
16450;SDS011;12243;42.708;23.310;2022-10-31T02:50:47;10.47;;;7.57;;
16450;SDS011;12243;42.708;23.310;2022-10-31T02:53:18;9.23;;;7.60;;
16450;SDS011;12243;42.708;23.310;2022-10-31T02:55:56;12.83;;;7.77;;
16450;SDS011;12243;42.708;23.310;2022-10-31T02:58:26;10.00;;;7.40;;
16450;SDS011;12243;42.708;23.310;2022-10-31T03:01:04;9.00;;;7.53;;
16450;SDS011;12243;42.708;23.310;2022-10-31T03:03:53;8.43;;;7.37;;
16450;SDS011;12243;42.708;23.310;2022-10-31T03:06:41;13.33;;;7.90;;
16450;SDS011;12243;42.708;23.310;2022-10-31T03:09:18;11.77;;;7.97;;
16450;SDS011;12243;42.708;23.310;2022-10-31T03:11:56;11.33;;;7.53;;
16450;SDS011;12243;42.708;23.310;2022-10-31T03:14:26;18.43;;;11.93;;
16450;SDS011;12243;42.708;23.310;2022-10-31T03:17:04;13.20;;;10.03;;
16450;SDS011;12243;42.708;23.310;2022-10-31T03:19:36;12.47;;;8.70;;
16450;SDS011;12243;42.708;23.310;2022-10-31T03:22:07;14.37;;;9.10;;
16450;SDS011;12243;42.708;23.310;2022-10-31T03:24:42;10.50;;;8.67;;
16450;SDS011;12243;42.708;23.310;2022-10-31T03:27:12;10.47;;;8.53;;
16450;SDS011;12243;42.708;23.310;2022-10-31T03:29:42;10.00;;;8.40;;
16450;SDS011;12243;42.708;23.310;2022-10-31T03:32:12;10.93;;;8.17;;
16450;SDS011;12243;42.708;23.310;2022-10-31T03:34:46;11.37;;;8.40;;
16450;SDS011;12243;42.708;23.310;2022-10-31T03:37:16;9.17;;;7.70;;
16450;SDS011;12243;42.708;23.310;2022-10-31T03:39:46;9.97;;;8.53;;
16450;SDS011;12243;42.708;23.310;2022-10-31T03:42:17;15.23;;;8.47;;
16450;SDS011;12243;42.708;23.310;2022-10-31T03:44:49;10.17;;;7.73;;
16450;SDS011;12243;42.708;23.310;2022-10-31T03:47:21;13.47;;;8.93;;
16450;SDS011;12243;42.708;23.310;2022-10-31T03:49:50;9.47;;;8.23;;
16450;SDS011;12243;42.708;23.310;2022-10-31T03:52:19;10.50;;;8.60;;
16450;SDS011;12243;42.708;23.310;2022-10-31T03:54:55;11.37;;;8.00;;
16450;SDS011;12243;42.708;23.310;2022-10-31T03:57:29;9.67;;;8.20;;
16450;SDS011;12243;42.708;23.310;2022-10-31T04:00:04;13.40;;;8.30;;
16450;SDS011;12243;42.708;23.310;2022-10-31T04:02:43;9.40;;;8.27;;
16450;SDS011;12243;42.708;23.310;2022-10-31T04:05:18;12.00;;;8.73;;
16450;SDS011;12243;42.708;23.310;2022-10-31T04:07:47;11.50;;;8.93;;
16450;SDS011;12243;42.708;23.310;2022-10-31T04:10:19;12.70;;;10.33;;
16450;SDS011;12243;42.708;23.310;2022-10-31T04:12:49;13.53;;;9.17;;
16450;SDS011;12243;42.708;23.310;2022-10-31T04:15:24;11.97;;;8.73;;
16450;SDS011;12243;42.708;23.310;2022-10-31T04:17:54;12.17;;;9.00;;
16450;SDS011;12243;42.708;23.310;2022-10-31T04:20:32;11.93;;;8.50;;
16450;SDS011;12243;42.708;23.310;2022-10-31T04:22:59;13.93;;;9.00;;
16450;SDS011;12243;42.708;23.310;2022-10-31T04:25:27;11.53;;;8.20;;
16450;SDS011;12243;42.708;23.310;2022-10-31T04:27:54;11.67;;;9.20;;
16450;SDS011;12243;42.708;23.310;2022-10-31T04:30:21;13.77;;;9.03;;
16450;SDS011;12243;42.708;23.310;2022-10-31T04:32:48;14.80;;;9.63;;
16450;SDS011;12243;42.708;23.310;2022-10-31T04:35:16;12.93;;;9.00;;
16450;SDS011;12243;42.708;23.310;2022-10-31T04:37:46;14.57;;;8.67;;
16450;SDS011;12243;42.708;23.310;2022-10-31T04:40:13;14.60;;;9.70;;
16450;SDS011;12243;42.708;23.310;2022-10-31T04:43:03;13.53;;;9.83;;
16450;SDS011;12243;42.708;23.310;2022-10-31T04:45:30;12.57;;;8.70;;
16450;SDS011;12243;42.708;23.310;2022-10-31T04:47:57;13.60;;;8.93;;
16450;SDS011;12243;42.708;23.310;2022-10-31T04:50:23;11.93;;;8.97;;
16450;SDS011;12243;42.708;23.310;2022-10-31T04:52:52;13.67;;;9.50;;
16450;SDS011;12243;42.708;23.310;2022-10-31T04:55:24;13.73;;;9.13;;
16450;SDS011;12243;42.708;23.310;2022-10-31T04:58:14;14.50;;;9.10;;
16450;SDS011;12243;42.708;23.310;2022-10-31T05:00:42;13.17;;;9.43;;
16450;SDS011;12243;42.708;23.310;2022-10-31T05:03:11;13.57;;;9.57;;
16450;SDS011;12243;42.708;23.310;2022-10-31T05:05:38;12.03;;;8.60;;
16450;SDS011;12243;42.708;23.310;2022-10-31T05:08:06;18.77;;;9.50;;
16450;SDS011;12243;42.708;23.310;2022-10-31T05:10:33;15.43;;;10.00;;
16450;SDS011;12243;42.708;23.310;2022-10-31T05:13:02;14.87;;;9.57;;
16450;SDS011;12243;42.708;23.310;2022-10-31T05:15:49;13.33;;;9.13;;
16450;SDS011;12243;42.708;23.310;2022-10-31T05:18:48;18.77;;;10.30;;
16450;SDS011;12243;42.708;23.310;2022-10-31T05:21:27;17.70;;;10.33;;
16450;SDS011;12243;42.708;23.310;2022-10-31T05:24:00;20.40;;;11.00;;
16450;SDS011;12243;42.708;23.310;2022-10-31T05:26:27;16.00;;;10.73;;
16450;SDS011;12243;42.708;23.310;2022-10-31T05:28:55;19.97;;;10.53;;
16450;SDS011;12243;42.708;23.310;2022-10-31T05:31:22;22.17;;;11.33;;
16450;SDS011;12243;42.708;23.310;2022-10-31T05:33:50;20.33;;;11.10;;
16450;SDS011;12243;42.708;23.310;2022-10-31T05:36:40;16.97;;;10.07;;
16450;SDS011;12243;42.708;23.310;2022-10-31T05:39:22;16.77;;;10.87;;
16450;SDS011;12243;42.708;23.310;2022-10-31T05:41:53;19.30;;;11.47;;
16450;SDS011;12243;42.708;23.310;2022-10-31T05:44:24;15.80;;;11.20;;
16450;SDS011;12243;42.708;23.310;2022-10-31T05:46:58;18.67;;;11.87;;
16450;SDS011;12243;42.708;23.310;2022-10-31T05:49:57;18.90;;;11.37;;
16450;SDS011;12243;42.708;23.310;2022-10-31T05:52:54;22.57;;;12.17;;
16450;SDS011;12243;42.708;23.310;2022-10-31T05:55:38;21.90;;;12.50;;
16450;SDS011;12243;42.708;23.310;2022-10-31T05:58:12;18.23;;;12.00;;
16450;SDS011;12243;42.708;23.310;2022-10-31T06:00:45;19.80;;;11.77;;
16450;SDS011;12243;42.708;23.310;2022-10-31T06:03:12;21.70;;;12.13;;
16450;SDS011;12243;42.708;23.310;2022-10-31T06:05:59;23.27;;;12.30;;
16450;SDS011;12243;42.708;23.310;2022-10-31T06:08:31;16.33;;;12.53;;
16450;SDS011;12243;42.708;23.310;2022-10-31T06:11:04;17.33;;;12.27;;
16450;SDS011;12243;42.708;23.310;2022-10-31T06:13:50;21.13;;;12.43;;
16450;SDS011;12243;42.708;23.310;2022-10-31T06:16:22;18.07;;;11.77;;
16450;SDS011;12243;42.708;23.310;2022-10-31T06:18:50;18.77;;;11.37;;
16450;SDS011;12243;42.708;23.310;2022-10-31T06:21:18;18.43;;;12.20;;
16450;SDS011;12243;42.708;23.310;2022-10-31T06:23:47;20.40;;;12.70;;
16450;SDS011;12243;42.708;23.310;2022-10-31T06:26:35;25.67;;;13.60;;
16450;SDS011;12243;42.708;23.310;2022-10-31T06:29:02;17.97;;;12.67;;
16450;SDS011;12243;42.708;23.310;2022-10-31T06:31:55;18.30;;;11.67;;
16450;SDS011;12243;42.708;23.310;2022-10-31T06:34:22;20.20;;;11.97;;
16450;SDS011;12243;42.708;23.310;2022-10-31T06:36:49;16.37;;;12.07;;
16450;SDS011;12243;42.708;23.310;2022-10-31T06:39:21;20.50;;;11.33;;
16450;SDS011;12243;42.708;23.310;2022-10-31T06:41:49;16.40;;;11.43;;
16450;SDS011;12243;42.708;23.310;2022-10-31T06:44:19;14.80;;;10.63;;
16450;SDS011;12243;42.708;23.310;2022-10-31T06:46:58;17.03;;;12.63;;
16450;SDS011;12243;42.708;23.310;2022-10-31T06:49:48;25.40;;;12.10;;
16450;SDS011;12243;42.708;23.310;2022-10-31T06:52:20;24.83;;;12.27;;
16450;SDS011;12243;42.708;23.310;2022-10-31T06:54:49;19.60;;;12.30;;
16450;SDS011;12243;42.708;23.310;2022-10-31T06:57:17;17.13;;;12.10;;
16450;SDS011;12243;42.708;23.310;2022-10-31T06:59:44;20.13;;;12.37;;
16450;SDS011;12243;42.708;23.310;2022-10-31T07:02:18;16.90;;;11.87;;
16450;SDS011;12243;42.708;23.310;2022-10-31T07:04:47;18.80;;;11.23;;
16450;SDS011;12243;42.708;23.310;2022-10-31T07:07:16;13.10;;;11.00;;
16450;SDS011;12243;42.708;23.310;2022-10-31T07:09:44;13.50;;;12.03;;
16450;SDS011;12243;42.708;23.310;2022-10-31T07:12:15;17.00;;;10.87;;
16450;SDS011;12243;42.708;23.310;2022-10-31T07:14:52;15.47;;;11.43;;
16450;SDS011;12243;42.708;23.310;2022-10-31T07:17:19;22.93;;;11.37;;
16450;SDS011;12243;42.708;23.310;2022-10-31T07:19:52;14.77;;;11.73;;
16450;SDS011;12243;42.708;23.310;2022-10-31T07:22:19;16.90;;;12.00;;
16450;SDS011;12243;42.708;23.310;2022-10-31T07:24:46;18.10;;;11.53;;
16450;SDS011;12243;42.708;23.310;2022-10-31T07:27:35;16.87;;;12.03;;
16450;SDS011;12243;42.708;23.310;2022-10-31T07:30:04;25.17;;;12.60;;
16450;SDS011;12243;42.708;23.310;2022-10-31T07:32:39;21.60;;;12.77;;
16450;SDS011;12243;42.708;23.310;2022-10-31T07:35:07;20.83;;;12.80;;
16450;SDS011;12243;42.708;23.310;2022-10-31T07:37:45;18.40;;;12.83;;
16450;SDS011;12243;42.708;23.310;2022-10-31T07:40:13;16.10;;;12.50;;
16450;SDS011;12243;42.708;23.310;2022-10-31T07:42:42;19.30;;;13.55;;
16450;SDS011;12243;42.708;23.310;2022-10-31T07:45:30;17.05;;;12.93;;
16450;SDS011;12243;42.708;23.310;2022-10-31T07:48:16;23.17;;;12.97;;
16450;SDS011;12243;42.708;23.310;2022-10-31T07:51:01;24.73;;;13.50;;
16450;SDS011;12243;42.708;23.310;2022-10-31T07:53:51;21.40;;;13.23;;
16450;SDS011;12243;42.708;23.310;2022-10-31T07:56:23;21.67;;;12.93;;
16450;SDS011;12243;42.708;23.310;2022-10-31T07:58:51;20.13;;;14.50;;
16450;SDS011;12243;42.708;23.310;2022-10-31T08:01:20;21.90;;;14.75;;
16450;SDS011;12243;42.708;23.310;2022-10-31T08:04:04;23.13;;;14.88;;
16450;SDS011;12243;42.708;23.310;2022-10-31T08:06:50;19.77;;;15.13;;
16450;SDS011;12243;42.708;23.310;2022-10-31T08:09:37;23.42;;;14.77;;
16450;SDS011;12243;42.708;23.310;2022-10-31T08:12:15;20.63;;;15.32;;
16450;SDS011;12243;42.708;23.310;2022-10-31T08:14:42;23.35;;;15.05;;
16450;SDS011;12243;42.708;23.310;2022-10-31T08:17:11;23.50;;;15.23;;
16450;SDS011;12243;42.708;23.310;2022-10-31T08:19:45;25.88;;;15.30;;
16450;SDS011;12243;42.708;23.310;2022-10-31T08:22:14;20.67;;;14.48;;
16450;SDS011;12243;42.708;23.310;2022-10-31T08:24:42;17.33;;;13.77;;
16450;SDS011;12243;42.708;23.310;2022-10-31T08:27:09;21.15;;;14.77;;
16450;SDS011;12243;42.708;23.310;2022-10-31T08:29:38;20.42;;;14.32;;
16450;SDS011;12243;42.708;23.310;2022-10-31T08:32:05;16.88;;;14.30;;
16450;SDS011;12243;42.708;23.310;2022-10-31T08:34:52;25.05;;;13.52;;
16450;SDS011;12243;42.708;23.310;2022-10-31T08:37:37;16.23;;;13.50;;
16450;SDS011;12243;42.708;23.310;2022-10-31T08:40:05;21.08;;;13.23;;
16450;SDS011;12243;42.708;23.310;2022-10-31T08:42:34;17.02;;;12.52;;
16450;SDS011;12243;42.708;23.310;2022-10-31T08:45:01;16.77;;;12.85;;
16450;SDS011;12243;42.708;23.310;2022-10-31T08:47:30;17.27;;;11.88;;
16450;SDS011;12243;42.708;23.310;2022-10-31T08:49:59;16.92;;;11.75;;
16450;SDS011;12243;42.708;23.310;2022-10-31T08:52:26;16.33;;;12.52;;
16450;SDS011;12243;42.708;23.310;2022-10-31T08:54:58;17.33;;;12.20;;
16450;SDS011;12243;42.708;23.310;2022-10-31T08:57:57;13.35;;;11.95;;
16450;SDS011;12243;42.708;23.310;2022-10-31T09:00:33;20.85;;;12.00;;
16450;SDS011;12243;42.708;23.310;2022-10-31T09:03:10;15.85;;;12.30;;
16450;SDS011;12243;42.708;23.310;2022-10-31T09:05:39;14.52;;;11.10;;
16450;SDS011;12243;42.708;23.310;2022-10-31T09:08:08;16.30;;;12.23;;
16450;SDS011;12243;42.708;23.310;2022-10-31T09:10:36;18.38;;;11.98;;
16450;SDS011;12243;42.708;23.310;2022-10-31T09:13:05;19.25;;;12.38;;
16450;SDS011;12243;42.708;23.310;2022-10-31T09:15:52;17.73;;;12.02;;
16450;SDS011;12243;42.708;23.310;2022-10-31T09:18:22;15.10;;;11.45;;
16450;SDS011;12243;42.708;23.310;2022-10-31T09:20:58;15.27;;;11.20;;
16450;SDS011;12243;42.708;23.310;2022-10-31T09:23:29;16.08;;;11.25;;
16450;SDS011;12243;42.708;23.310;2022-10-31T09:25:58;11.98;;;10.60;;
16450;SDS011;12243;42.708;23.310;2022-10-31T09:28:37;17.30;;;11.02;;
16450;SDS011;12243;42.708;23.310;2022-10-31T09:31:09;15.10;;;10.60;;
16450;SDS011;12243;42.708;23.310;2022-10-31T09:33:54;16.77;;;9.82;;
16450;SDS011;12243;42.708;23.310;2022-10-31T09:36:37;12.65;;;9.52;;
16450;SDS011;12243;42.708;23.310;2022-10-31T09:39:08;10.77;;;9.70;;
16450;SDS011;12243;42.708;23.310;2022-10-31T09:41:42;14.60;;;9.02;;
16450;SDS011;12243;42.708;23.310;2022-10-31T09:44:33;15.68;;;9.68;;
16450;SDS011;12243;42.708;23.310;2022-10-31T09:47:23;14.15;;;9.27;;
16450;SDS011;12243;42.708;23.310;2022-10-31T09:50:41;10.73;;;8.07;;
16450;SDS011;12243;42.708;23.310;2022-10-31T09:53:34;10.75;;;8.25;;
16450;SDS011;12243;42.708;23.310;2022-10-31T09:56:08;12.20;;;7.90;;
16450;SDS011;12243;42.708;23.310;2022-10-31T09:58:40;11.20;;;7.25;;
16450;SDS011;12243;42.708;23.310;2022-10-31T10:01:14;11.93;;;8.18;;
16450;SDS011;12243;42.708;23.310;2022-10-31T10:03:54;11.07;;;7.97;;
16450;SDS011;12243;42.708;23.310;2022-10-31T10:06:45;14.43;;;7.57;;
16450;SDS011;12243;42.708;23.310;2022-10-31T10:09:37;11.07;;;7.38;;
16450;SDS011;12243;42.708;23.310;2022-10-31T10:12:37;14.65;;;7.63;;
16450;SDS011;12243;42.708;23.310;2022-10-31T10:18:15;11.32;;;6.63;;
16450;SDS011;12243;42.708;23.310;2022-10-31T10:20:51;10.75;;;6.60;;
16450;SDS011;12243;42.708;23.310;2022-10-31T10:23:34;8.93;;;6.22;;
16450;SDS011;12243;42.708;23.310;2022-10-31T10:26:13;10.65;;;6.60;;
16450;SDS011;12243;42.708;23.310;2022-10-31T10:28:44;13.48;;;7.07;;
16450;SDS011;12243;42.708;23.310;2022-10-31T10:31:16;12.77;;;8.48;;
16450;SDS011;12243;42.708;23.310;2022-10-31T10:33:49;9.18;;;6.70;;
16450;SDS011;12243;42.708;23.310;2022-10-31T10:36:26;10.10;;;5.85;;
16450;SDS011;12243;42.708;23.310;2022-10-31T10:38:57;9.10;;;6.28;;
16450;SDS011;12243;42.708;23.310;2022-10-31T10:41:31;11.45;;;5.65;;
16450;SDS011;12243;42.708;23.310;2022-10-31T10:43:58;7.10;;;5.55;;
16450;SDS011;12243;42.708;23.310;2022-10-31T10:46:26;11.68;;;6.25;;
16450;SDS011;12243;42.708;23.310;2022-10-31T10:49:19;5.68;;;4.63;;
16450;SDS011;12243;42.708;23.310;2022-10-31T10:51:53;10.75;;;5.38;;
16450;SDS011;12243;42.708;23.310;2022-10-31T10:57:20;9.82;;;6.03;;
16450;SDS011;12243;42.708;23.310;2022-10-31T10:59:53;8.50;;;5.88;;
16450;SDS011;12243;42.708;23.310;2022-10-31T11:02:21;8.05;;;5.63;;
16450;SDS011;12243;42.708;23.310;2022-10-31T11:04:50;11.05;;;5.70;;
16450;SDS011;12243;42.708;23.310;2022-10-31T11:07:19;11.90;;;5.90;;
16450;SDS011;12243;42.708;23.310;2022-10-31T11:09:45;8.63;;;4.70;;
16450;SDS011;12243;42.708;23.310;2022-10-31T11:12:16;11.32;;;6.80;;
16450;SDS011;12243;42.708;23.310;2022-10-31T11:14:48;6.50;;;4.72;;
16450;SDS011;12243;42.708;23.310;2022-10-31T11:17:20;8.30;;;4.78;;
16450;SDS011;12243;42.708;23.310;2022-10-31T11:20:03;7.05;;;4.60;;
16450;SDS011;12243;42.708;23.310;2022-10-31T11:22:32;10.38;;;4.50;;
16450;SDS011;12243;42.708;23.310;2022-10-31T11:24:58;8.98;;;4.35;;
16450;SDS011;12243;42.708;23.310;2022-10-31T11:27:25;6.35;;;4.35;;
16450;SDS011;12243;42.708;23.310;2022-10-31T11:29:54;5.72;;;4.32;;
16450;SDS011;12243;42.708;23.310;2022-10-31T11:32:31;10.77;;;4.55;;
16450;SDS011;12243;42.708;23.310;2022-10-31T11:34:58;5.70;;;3.85;;
16450;SDS011;12243;42.708;23.310;2022-10-31T11:37:29;10.25;;;5.00;;
16450;SDS011;12243;42.708;23.310;2022-10-31T11:40:01;7.63;;;4.40;;
16450;SDS011;12243;42.708;23.310;2022-10-31T11:42:34;8.82;;;4.43;;
16450;SDS011;12243;42.708;23.310;2022-10-31T11:45:07;6.78;;;4.45;;
16450;SDS011;12243;42.708;23.310;2022-10-31T11:47:41;6.88;;;4.15;;
16450;SDS011;12243;42.708;23.310;2022-10-31T11:50:11;8.95;;;4.22;;
16450;SDS011;12243;42.708;23.310;2022-10-31T11:52:46;8.15;;;4.63;;
16450;SDS011;12243;42.708;23.310;2022-10-31T11:55:14;7.97;;;4.32;;
16450;SDS011;12243;42.708;23.310;2022-10-31T11:57:44;5.43;;;3.78;;
16450;SDS011;12243;42.708;23.310;2022-10-31T12:00:21;9.55;;;4.35;;
16450;SDS011;12243;42.708;23.310;2022-10-31T12:02:49;10.60;;;4.57;;
16450;SDS011;12243;42.708;23.310;2022-10-31T12:05:17;7.90;;;4.40;;
16450;SDS011;12243;42.708;23.310;2022-10-31T12:07:46;7.45;;;4.35;;
16450;SDS011;12243;42.708;23.310;2022-10-31T12:10:14;7.65;;;4.32;;
16450;SDS011;12243;42.708;23.310;2022-10-31T12:12:51;13.70;;;4.45;;
16450;SDS011;12243;42.708;23.310;2022-10-31T12:15:33;5.20;;;4.15;;
16450;SDS011;12243;42.708;23.310;2022-10-31T12:21:06;7.32;;;4.85;;
16450;SDS011;12243;42.708;23.310;2022-10-31T12:23:45;10.00;;;4.60;;
16450;SDS011;12243;42.708;23.310;2022-10-31T12:26:31;6.07;;;4.50;;
16450;SDS011;12243;42.708;23.310;2022-10-31T12:29:18;6.18;;;4.38;;
16450;SDS011;12243;42.708;23.310;2022-10-31T12:32:04;8.70;;;4.43;;
16450;SDS011;12243;42.708;23.310;2022-10-31T12:34:53;12.88;;;4.43;;
16450;SDS011;12243;42.708;23.310;2022-10-31T12:37:48;8.18;;;4.80;;
16450;SDS011;12243;42.708;23.310;2022-10-31T12:40:39;6.47;;;4.50;;
16450;SDS011;12243;42.708;23.310;2022-10-31T12:43:20;9.82;;;4.47;;
16450;SDS011;12243;42.708;23.310;2022-10-31T12:46:01;12.25;;;4.70;;
16450;SDS011;12243;42.708;23.310;2022-10-31T12:51:40;8.82;;;5.15;;
16450;SDS011;12243;42.708;23.310;2022-10-31T12:54:18;8.20;;;4.20;;
16450;SDS011;12243;42.708;23.310;2022-10-31T12:57:02;7.88;;;4.38;;
16450;SDS011;12243;42.708;23.310;2022-10-31T12:59:41;8.38;;;4.45;;
16450;SDS011;12243;42.708;23.310;2022-10-31T13:02:13;10.07;;;4.60;;
16450;SDS011;12243;42.708;23.310;2022-10-31T13:04:46;10.45;;;5.78;;
16450;SDS011;12243;42.708;23.310;2022-10-31T13:07:19;7.75;;;4.47;;
16450;SDS011;12243;42.708;23.310;2022-10-31T13:09:52;6.47;;;4.20;;
16450;SDS011;12243;42.708;23.310;2022-10-31T13:12:22;8.40;;;4.57;;
16450;SDS011;12243;42.708;23.310;2022-10-31T13:14:51;7.35;;;4.20;;
16450;SDS011;12243;42.708;23.310;2022-10-31T13:17:23;9.95;;;4.00;;
16450;SDS011;12243;42.708;23.310;2022-10-31T13:19:59;8.43;;;4.07;;
16450;SDS011;12243;42.708;23.310;2022-10-31T13:22:41;9.43;;;4.13;;
16450;SDS011;12243;42.708;23.310;2022-10-31T13:25:11;8.57;;;4.45;;
16450;SDS011;12243;42.708;23.310;2022-10-31T13:27:44;14.30;;;4.68;;
16450;SDS011;12243;42.708;23.310;2022-10-31T13:30:16;7.00;;;4.28;;
16450;SDS011;12243;42.708;23.310;2022-10-31T13:32:45;9.30;;;4.35;;
16450;SDS011;12243;42.708;23.310;2022-10-31T13:35:19;7.03;;;4.25;;
16450;SDS011;12243;42.708;23.310;2022-10-31T13:37:54;11.90;;;4.80;;
16450;SDS011;12243;42.708;23.310;2022-10-31T13:40:33;9.30;;;4.68;;
16450;SDS011;12243;42.708;23.310;2022-10-31T13:43:06;13.82;;;4.60;;
16450;SDS011;12243;42.708;23.310;2022-10-31T13:45:49;9.40;;;4.07;;
16450;SDS011;12243;42.708;23.310;2022-10-31T13:48:19;6.65;;;4.72;;
16450;SDS011;12243;42.708;23.310;2022-10-31T13:51:00;10.05;;;4.28;;
16450;SDS011;12243;42.708;23.310;2022-10-31T13:53:37;9.45;;;4.80;;
16450;SDS011;12243;42.708;23.310;2022-10-31T13:56:14;9.45;;;5.32;;
16450;SDS011;12243;42.708;23.310;2022-10-31T13:58:54;8.13;;;4.72;;
16450;SDS011;12243;42.708;23.310;2022-10-31T14:01:25;8.75;;;4.53;;
16450;SDS011;12243;42.708;23.310;2022-10-31T14:03:59;4.82;;;3.90;;
16450;SDS011;12243;42.708;23.310;2022-10-31T14:06:40;5.47;;;4.13;;
16450;SDS011;12243;42.708;23.310;2022-10-31T14:09:20;10.93;;;4.28;;
16450;SDS011;12243;42.708;23.310;2022-10-31T14:11:50;10.98;;;4.53;;
16450;SDS011;12243;42.708;23.310;2022-10-31T14:14:18;12.35;;;4.18;;
16450;SDS011;12243;42.708;23.310;2022-10-31T14:16:52;12.65;;;4.10;;
16450;SDS011;12243;42.708;23.310;2022-10-31T14:19:22;9.35;;;4.53;;
16450;SDS011;12243;42.708;23.310;2022-10-31T14:21:49;16.25;;;5.30;;
16450;SDS011;12243;42.708;23.310;2022-10-31T14:24:33;8.55;;;4.53;;
16450;SDS011;12243;42.708;23.310;2022-10-31T14:27:02;7.68;;;3.85;;
16450;SDS011;12243;42.708;23.310;2022-10-31T14:29:33;9.13;;;4.68;;
16450;SDS011;12243;42.708;23.310;2022-10-31T14:32:05;8.73;;;4.65;;
16450;SDS011;12243;42.708;23.310;2022-10-31T14:34:43;14.82;;;4.90;;
16450;SDS011;12243;42.708;23.310;2022-10-31T14:37:29;9.98;;;4.50;;
16450;SDS011;12243;42.708;23.310;2022-10-31T14:40:14;8.57;;;4.40;;
16450;SDS011;12243;42.708;23.310;2022-10-31T14:45:48;6.40;;;5.28;;
16450;SDS011;12243;42.708;23.310;2022-10-31T14:48:29;11.52;;;5.60;;
16450;SDS011;12243;42.708;23.310;2022-10-31T14:51:10;12.55;;;5.40;;
16450;SDS011;12243;42.708;23.310;2022-10-31T14:53:43;13.20;;;4.78;;
16450;SDS011;12243;42.708;23.310;2022-10-31T14:56:16;13.30;;;5.80;;
16450;SDS011;12243;42.708;23.310;2022-10-31T14:58:47;18.98;;;6.15;;
16450;SDS011;12243;42.708;23.310;2022-10-31T15:01:17;9.30;;;5.45;;
16450;SDS011;12243;42.708;23.310;2022-10-31T15:03:48;10.57;;;5.20;;
16450;SDS011;12243;42.708;23.310;2022-10-31T15:06:16;9.35;;;5.80;;
16450;SDS011;12243;42.708;23.310;2022-10-31T15:08:47;18.05;;;5.82;;
16450;SDS011;12243;42.708;23.310;2022-10-31T15:11:17;11.50;;;5.38;;
16450;SDS011;12243;42.708;23.310;2022-10-31T15:13:45;17.08;;;5.30;;
16450;SDS011;12243;42.708;23.310;2022-10-31T15:16:14;7.82;;;5.05;;
16450;SDS011;12243;42.708;23.310;2022-10-31T15:18:52;9.07;;;4.70;;